createdAt,value
2018-05-01T00:00:25.550Z,0.00
2018-05-01T00:01:25.530Z,0.00
2018-05-01T00:02:25.514Z,0.00
2018-05-01T00:05:10.211Z,0.00
2018-05-01T00:06:10.194Z,0.00
2018-05-01T00:07:10.170Z,0.00
2018-05-01T00:08:10.150Z,0.00
2018-05-01T00:09:10.134Z,0.00
2018-05-01T00:10:10.111Z,0.00
2018-05-01T00:11:10.097Z,0.00
2018-05-01T00:12:10.083Z,0.00
2018-05-01T00:13:10.052Z,0.00
2018-05-01T00:14:10.037Z,0.00
2018-05-01T00:15:10.014Z,0.00
2018-05-01T00:16:10.026Z,0.00
2018-05-01T00:17:09.980Z,0.00
2018-05-01T00:18:09.961Z,0.00
2018-05-01T00:19:09.936Z,0.00
2018-05-01T00:20:09.927Z,0.00
2018-05-01T00:21:09.955Z,0.00
2018-05-01T00:22:09.883Z,0.00
2018-05-01T00:23:09.910Z,0.00
2018-05-01T00:24:09.842Z,0.00
2018-05-01T00:25:09.888Z,0.00
2018-05-01T00:26:09.802Z,0.00
2018-05-01T00:27:09.789Z,0.00
2018-05-01T00:28:09.771Z,0.00
2018-05-01T00:29:09.815Z,0.00
2018-05-01T00:30:09.729Z,0.00
2018-05-01T00:31:09.866Z,0.00
2018-05-01T00:32:09.690Z,0.00
2018-05-01T00:33:09.773Z,0.00
2018-05-01T00:34:09.661Z,0.00
2018-05-01T00:35:09.729Z,0.00
2018-05-01T00:36:09.670Z,0.00
2018-05-01T00:37:09.637Z,0.00
2018-05-01T00:38:09.572Z,0.00
2018-05-01T00:39:09.623Z,0.00
2018-05-01T00:40:09.529Z,0.00
2018-05-01T00:41:09.661Z,0.00
2018-05-01T00:42:09.491Z,0.00
2018-05-01T00:43:09.586Z,0.00
2018-05-01T00:44:09.456Z,0.00
2018-05-01T00:45:09.538Z,0.00
2018-05-01T00:46:09.417Z,0.00
2018-05-01T00:47:09.449Z,0.00
2018-05-01T00:48:09.383Z,0.00
2018-05-01T00:49:09.417Z,0.00
2018-05-01T00:50:09.342Z,0.00
2018-05-01T00:51:09.330Z,0.00
2018-05-01T00:52:09.297Z,0.00
2018-05-01T00:53:09.333Z,0.00
2018-05-01T00:54:09.260Z,0.00
2018-05-01T00:55:09.243Z,0.00
2018-05-01T00:56:09.221Z,0.00
2018-05-01T00:57:09.198Z,0.00
2018-05-01T00:58:09.180Z,0.00
2018-05-01T00:59:09.163Z,0.00
2018-05-01T01:00:09.139Z,0.00
2018-05-01T01:01:09.120Z,0.00
2018-05-01T01:02:09.100Z,0.00
2018-05-01T01:03:09.080Z,0.00
2018-05-01T01:04:09.071Z,0.00
2018-05-01T01:05:09.043Z,0.00
2018-05-01T01:06:09.024Z,0.00
2018-05-01T01:07:09.002Z,0.00
2018-05-01T01:08:08.990Z,0.00
2018-05-01T01:09:08.963Z,0.00
2018-05-01T01:10:08.944Z,0.00
2018-05-01T01:11:08.923Z,0.00
2018-05-01T01:12:08.904Z,0.00
2018-05-01T01:13:08.892Z,0.00
2018-05-01T01:14:08.874Z,0.00
2018-05-01T01:15:08.847Z,0.00
2018-05-01T01:16:08.826Z,0.00
2018-05-01T01:17:08.814Z,0.00
2018-05-01T01:18:08.788Z,0.00
2018-05-01T01:19:08.769Z,0.00
2018-05-01T01:20:08.750Z,0.00
2018-05-01T01:21:08.731Z,0.00
2018-05-01T01:22:08.708Z,0.00
2018-05-01T01:23:08.692Z,0.00
2018-05-01T01:24:08.667Z,0.00
2018-05-01T01:25:08.650Z,0.00
2018-05-01T01:26:08.631Z,0.00
2018-05-01T01:27:08.614Z,0.00
2018-05-01T01:28:08.592Z,0.00
2018-05-01T01:29:08.571Z,0.00
2018-05-01T01:30:08.560Z,0.00
2018-05-01T01:31:08.531Z,0.00
2018-05-01T01:32:08.510Z,0.00
2018-05-01T01:33:08.487Z,0.00
2018-05-01T01:34:08.470Z,0.00
2018-05-01T01:35:08.451Z,0.00
2018-05-01T01:36:08.430Z,0.00
2018-05-01T01:37:08.410Z,0.00
2018-05-01T01:38:08.390Z,0.00
2018-05-01T01:39:08.370Z,0.00
2018-05-01T01:40:08.349Z,0.00
2018-05-01T01:41:08.329Z,0.00
2018-05-01T01:42:08.311Z,0.00
2018-05-01T01:43:08.305Z,0.00
2018-05-01T01:44:08.277Z,0.00
2018-05-01T01:45:08.311Z,0.00
2018-05-01T01:46:08.231Z,0.00
2018-05-01T01:47:08.220Z,0.00
2018-05-01T01:48:08.196Z,0.00
2018-05-01T01:49:08.309Z,0.00
2018-05-01T01:50:08.157Z,0.00
2018-05-01T01:51:08.143Z,0.00
2018-05-01T01:52:08.115Z,0.00
2018-05-01T01:53:08.097Z,0.00
2018-05-01T01:54:08.077Z,0.00
2018-05-01T01:55:08.069Z,0.00
2018-05-01T01:56:08.033Z,0.00
2018-05-01T01:57:08.015Z,0.00
2018-05-01T01:58:07.994Z,0.00
2018-05-01T01:59:07.986Z,0.00
2018-05-01T02:00:07.966Z,0.00
2018-05-01T02:01:07.940Z,0.00
2018-05-01T02:02:07.920Z,0.00
2018-05-01T02:03:07.928Z,0.00
2018-05-01T02:04:07.879Z,0.00
2018-05-01T02:05:07.861Z,0.00
2018-05-01T02:06:07.838Z,0.00
2018-05-01T02:07:07.832Z,0.00
2018-05-01T02:08:07.800Z,0.00
2018-05-01T02:09:07.881Z,0.00
2018-05-01T02:10:07.762Z,0.00
2018-05-01T02:11:07.843Z,0.00
2018-05-01T02:12:07.723Z,0.00
2018-05-01T02:13:07.760Z,0.00
2018-05-01T02:14:07.683Z,0.00
2018-05-01T02:15:07.675Z,0.00
2018-05-01T02:16:07.643Z,0.00
2018-05-01T02:17:07.620Z,0.00
2018-05-01T02:18:07.600Z,0.00
2018-05-01T02:19:07.583Z,0.00
2018-05-01T02:20:07.559Z,0.00
2018-05-01T02:21:07.550Z,0.00
2018-05-01T02:22:07.528Z,0.00
2018-05-01T02:23:07.502Z,0.00
2018-05-01T02:24:07.480Z,0.00
2018-05-01T02:25:07.466Z,0.00
2018-05-01T02:26:07.440Z,0.00
2018-05-01T02:27:07.422Z,0.00
2018-05-01T02:28:07.412Z,0.00
2018-05-01T02:29:07.383Z,0.00
2018-05-01T02:30:07.378Z,0.00
2018-05-01T02:31:07.339Z,0.00
2018-05-01T02:32:07.321Z,0.00
2018-05-01T02:33:07.298Z,0.00
2018-05-01T02:34:07.280Z,0.00
2018-05-01T02:35:07.264Z,0.00
2018-05-01T02:36:07.253Z,0.00
2018-05-01T02:37:07.217Z,0.00
2018-05-01T02:38:07.206Z,0.00
2018-05-01T02:39:07.180Z,0.00
2018-05-01T02:40:07.161Z,0.00
2018-05-01T02:41:07.199Z,0.00
2018-05-01T02:42:07.121Z,0.00
2018-05-01T02:43:07.103Z,0.00
2018-05-01T02:44:07.083Z,0.00
2018-05-01T02:45:07.064Z,0.00
2018-05-01T02:46:07.054Z,0.00
2018-05-01T02:47:07.020Z,0.00
2018-05-01T02:48:07.002Z,0.00
2018-05-01T02:49:06.998Z,0.00
2018-05-01T02:50:06.963Z,0.00
2018-05-01T02:51:06.942Z,0.00
2018-05-01T02:52:06.927Z,0.00
2018-05-01T02:53:06.899Z,0.00
2018-05-01T02:54:06.884Z,0.00
2018-05-01T02:55:06.861Z,0.00
2018-05-01T02:56:06.841Z,0.00
2018-05-01T02:57:06.827Z,0.00
2018-05-01T02:58:06.801Z,0.00
2018-05-01T02:59:06.780Z,0.00
2018-05-01T03:00:06.762Z,0.00
2018-05-01T03:01:06.741Z,0.00
2018-05-01T03:02:06.722Z,0.00
2018-05-01T03:03:06.702Z,0.00
2018-05-01T03:04:06.684Z,0.00
2018-05-01T03:05:06.663Z,0.00
2018-05-01T03:06:06.655Z,0.00
2018-05-01T03:07:06.632Z,0.00
2018-05-01T03:08:06.602Z,0.00
2018-05-01T03:09:06.579Z,0.00
2018-05-01T03:10:06.563Z,0.00
2018-05-01T03:11:06.566Z,0.00
2018-05-01T03:12:06.529Z,0.00
2018-05-01T03:13:06.501Z,0.00
2018-05-01T03:14:06.483Z,0.00
2018-05-01T03:15:06.462Z,0.00
2018-05-01T03:16:06.443Z,0.00
2018-05-01T03:17:06.424Z,0.00
2018-05-01T03:18:06.403Z,0.00
2018-05-01T03:19:06.382Z,0.00
2018-05-01T03:20:06.377Z,0.00
2018-05-01T03:21:06.345Z,0.00
2018-05-01T03:22:06.321Z,0.00
2018-05-01T03:23:06.302Z,0.00
2018-05-01T03:24:06.284Z,0.00
2018-05-01T03:25:06.262Z,0.00
2018-05-01T03:26:06.242Z,0.00
2018-05-01T03:27:06.222Z,0.00
2018-05-01T03:28:06.201Z,0.00
2018-05-01T03:29:06.185Z,0.00
2018-05-01T03:30:06.170Z,0.00
2018-05-01T03:31:06.147Z,0.00
2018-05-01T03:32:06.121Z,0.00
2018-05-01T03:33:06.104Z,0.00
2018-05-01T03:34:06.082Z,0.00
2018-05-01T03:35:06.064Z,0.00
2018-05-01T03:36:06.043Z,0.00
2018-05-01T03:37:06.023Z,0.00
2018-05-01T03:38:06.002Z,4.00
2018-05-01T03:39:06.018Z,4.00
2018-05-01T03:40:05.962Z,0.00
2018-05-01T03:41:05.941Z,0.00
2018-05-01T03:42:05.921Z,0.00
2018-05-01T03:43:05.909Z,0.00
2018-05-01T03:44:05.887Z,0.00
2018-05-01T03:45:05.866Z,0.00
2018-05-01T03:46:05.841Z,0.00
2018-05-01T03:47:05.823Z,4.00
2018-05-01T03:48:05.814Z,4.00
2018-05-01T03:49:05.780Z,4.00
2018-05-01T03:50:05.770Z,4.00
2018-05-01T03:51:05.744Z,4.00
2018-05-01T03:52:05.722Z,4.00
2018-05-01T03:53:05.702Z,4.00
2018-05-01T03:54:05.680Z,4.00
2018-05-01T03:55:05.662Z,8.00
2018-05-01T03:56:05.723Z,4.00
2018-05-01T03:57:05.622Z,8.00
2018-05-01T03:58:05.600Z,8.00
2018-05-01T03:59:05.579Z,8.00
2018-05-01T04:00:05.560Z,12.00
2018-05-01T04:01:05.538Z,12.00
2018-05-01T04:02:05.521Z,12.00
2018-05-01T04:03:05.499Z,16.00
2018-05-01T04:04:05.485Z,12.00
2018-05-01T04:05:05.459Z,16.00
2018-05-01T04:06:05.442Z,16.00
2018-05-01T04:07:05.421Z,12.00
2018-05-01T04:08:05.401Z,16.00
2018-05-01T04:09:05.383Z,20.00
2018-05-01T04:10:05.367Z,20.00
2018-05-01T04:11:05.342Z,20.00
2018-05-01T04:12:05.323Z,20.00
2018-05-01T04:13:05.301Z,20.00
2018-05-01T04:14:05.289Z,20.00
2018-05-01T04:15:05.262Z,20.00
2018-05-01T04:16:05.245Z,28.00
2018-05-01T04:17:05.223Z,24.00
2018-05-01T04:18:05.202Z,28.00
2018-05-01T04:19:05.186Z,24.00
2018-05-01T04:20:05.163Z,32.00
2018-05-01T04:21:05.143Z,32.00
2018-05-01T04:22:05.121Z,40.00
2018-05-01T04:23:05.100Z,36.00
2018-05-01T04:24:05.081Z,48.00
2018-05-01T04:25:05.062Z,44.00
2018-05-01T04:26:05.041Z,40.00
2018-05-01T04:27:05.019Z,40.00
2018-05-01T04:28:05.002Z,44.00
2018-05-01T04:29:04.983Z,64.00
2018-05-01T04:30:04.959Z,48.00
2018-05-01T04:31:04.941Z,48.00
2018-05-01T04:32:04.922Z,56.00
2018-05-01T04:33:04.901Z,56.00
2018-05-01T04:34:04.892Z,60.00
2018-05-01T04:35:04.870Z,52.00
2018-05-01T04:36:04.838Z,60.00
2018-05-01T04:37:04.823Z,72.00
2018-05-01T04:38:04.798Z,76.00
2018-05-01T04:39:04.790Z,92.00
2018-05-01T04:40:04.760Z,92.00
2018-05-01T04:41:04.738Z,100.00
2018-05-01T04:42:04.718Z,124.00
2018-05-01T04:43:04.701Z,96.00
2018-05-01T04:44:04.684Z,92.00
2018-05-01T04:45:04.661Z,88.00
2018-05-01T04:46:04.640Z,100.00
2018-05-01T04:47:04.626Z,112.00
2018-05-01T04:48:04.603Z,124.00
2018-05-01T04:49:04.581Z,132.00
2018-05-01T04:50:04.555Z,128.00
2018-05-01T04:51:04.536Z,112.00
2018-05-01T04:52:04.516Z,136.00
2018-05-01T04:53:04.496Z,112.00
2018-05-01T04:54:04.479Z,120.00
2018-05-01T04:55:04.460Z,128.00
2018-05-01T04:56:04.438Z,112.00
2018-05-01T04:57:04.416Z,128.00
2018-05-01T04:58:04.404Z,204.00
2018-05-01T04:59:04.376Z,156.00
2018-05-01T05:00:04.362Z,180.00
2018-05-01T05:01:04.341Z,176.00
2018-05-01T05:02:04.320Z,188.00
2018-05-01T05:03:04.306Z,168.00
2018-05-01T05:04:04.276Z,188.00
2018-05-01T05:05:04.259Z,156.00
2018-05-01T05:06:04.245Z,176.00
2018-05-01T05:07:04.214Z,176.00
2018-05-01T05:08:04.216Z,176.00
2018-05-01T05:09:04.180Z,172.00
2018-05-01T05:10:04.159Z,204.00
2018-05-01T05:11:04.137Z,220.00
2018-05-01T05:12:04.126Z,216.00
2018-05-01T05:13:04.093Z,192.00
2018-05-01T05:14:04.079Z,196.00
2018-05-01T05:15:04.058Z,200.00
2018-05-01T05:16:04.040Z,208.00
2018-05-01T05:17:04.019Z,208.00
2018-05-01T05:18:03.996Z,216.00
2018-05-01T05:19:03.999Z,248.00
2018-05-01T05:20:03.960Z,252.00
2018-05-01T05:21:03.936Z,252.00
2018-05-01T05:22:03.924Z,252.00
2018-05-01T05:23:03.900Z,260.00
2018-05-01T05:24:03.873Z,256.00
2018-05-01T05:25:03.861Z,220.00
2018-05-01T05:26:03.831Z,200.00
2018-05-01T05:27:03.819Z,180.00
2018-05-01T05:28:03.801Z,172.00
2018-05-01T05:29:03.772Z,176.00
2018-05-01T05:30:03.758Z,168.00
2018-05-01T05:31:03.736Z,172.00
2018-05-01T05:32:03.714Z,204.00
2018-05-01T05:33:03.700Z,208.00
2018-05-01T05:34:03.677Z,176.00
2018-05-01T05:35:03.663Z,236.00
2018-05-01T05:36:03.643Z,240.00
2018-05-01T05:37:03.621Z,220.00
2018-05-01T05:38:03.595Z,280.00
2018-05-01T05:39:03.581Z,232.00
2018-05-01T05:40:03.563Z,204.00
2018-05-01T05:41:03.539Z,208.00
2018-05-01T05:42:03.511Z,244.00
2018-05-01T05:43:03.494Z,284.00
2018-05-01T05:44:03.473Z,228.00
2018-05-01T05:45:03.451Z,340.00
2018-05-01T05:46:03.440Z,300.00
2018-05-01T05:47:03.424Z,308.00
2018-05-01T05:48:03.393Z,336.00
2018-05-01T05:49:03.385Z,328.00
2018-05-01T05:50:03.353Z,320.00
2018-05-01T05:51:03.330Z,324.00
2018-05-01T05:52:03.323Z,348.00
2018-05-01T05:53:03.289Z,356.00
2018-05-01T05:54:03.273Z,372.00
2018-05-01T05:55:03.251Z,288.00
2018-05-01T05:56:03.236Z,276.00
2018-05-01T05:57:03.210Z,308.00
2018-05-01T05:58:03.189Z,288.00
2018-05-01T05:59:03.170Z,268.00
2018-05-01T06:00:03.157Z,272.00
2018-05-01T06:01:03.205Z,268.00
2018-05-01T06:02:03.109Z,236.00
2018-05-01T06:03:03.093Z,228.00
2018-05-01T06:04:03.073Z,220.00
2018-05-01T06:05:03.049Z,232.00
2018-05-01T06:06:03.030Z,272.00
2018-05-01T06:07:03.010Z,240.00
2018-05-01T06:08:02.989Z,224.00
2018-05-01T06:09:02.968Z,236.00
2018-05-01T06:10:02.948Z,248.00
2018-05-01T06:11:02.931Z,220.00
2018-05-01T06:12:02.912Z,252.00
2018-05-01T06:13:02.891Z,268.00
2018-05-01T06:14:02.871Z,256.00
2018-05-01T06:15:02.853Z,260.00
2018-05-01T06:16:02.831Z,252.00
2018-05-01T06:17:02.812Z,260.00
2018-05-01T06:18:02.793Z,340.00
2018-05-01T06:19:02.774Z,316.00
2018-05-01T06:20:02.785Z,320.00
2018-05-01T06:21:02.732Z,352.00
2018-05-01T06:22:02.784Z,368.00
2018-05-01T06:23:02.692Z,408.00
2018-05-01T06:24:02.671Z,444.00
2018-05-01T06:25:02.652Z,336.00
2018-05-01T06:26:02.632Z,392.00
2018-05-01T06:27:02.614Z,380.00
2018-05-01T06:28:02.592Z,400.00
2018-05-01T06:29:02.571Z,380.00
2018-05-01T06:30:02.550Z,452.00
2018-05-01T06:31:02.683Z,552.00
2018-05-01T06:32:02.509Z,460.00
2018-05-01T06:33:02.490Z,500.00
2018-05-01T06:34:02.470Z,492.00
2018-05-01T06:35:02.455Z,464.00
2018-05-01T06:36:02.431Z,420.00
2018-05-01T06:37:02.410Z,432.00
2018-05-01T06:38:02.411Z,448.00
2018-05-01T06:39:02.376Z,452.00
2018-05-01T06:40:02.380Z,388.00
2018-05-01T06:41:02.331Z,364.00
2018-05-01T06:42:02.312Z,380.00
2018-05-01T06:43:02.293Z,336.00
2018-05-01T06:44:02.292Z,364.00
2018-05-01T06:45:02.261Z,344.00
2018-05-01T06:46:02.232Z,368.00
2018-05-01T06:47:02.214Z,380.00
2018-05-01T06:48:02.188Z,424.00
2018-05-01T06:49:02.171Z,408.00
2018-05-01T06:50:02.161Z,444.00
2018-05-01T06:51:02.129Z,496.00
2018-05-01T06:52:02.108Z,556.00
2018-05-01T06:53:02.089Z,536.00
2018-05-01T06:54:02.065Z,464.00
2018-05-01T06:55:02.055Z,460.00
2018-05-01T06:56:02.043Z,504.00
2018-05-01T06:57:02.007Z,488.00
2018-05-01T06:58:01.989Z,500.00
2018-05-01T06:59:01.969Z,460.00
2018-05-01T07:00:01.956Z,456.00
2018-05-01T07:01:01.926Z,476.00
2018-05-01T07:02:01.906Z,492.00
2018-05-01T07:03:01.901Z,500.00
2018-05-01T07:04:01.873Z,508.00
2018-05-01T07:05:01.852Z,472.00
2018-05-01T07:06:01.829Z,588.00
2018-05-01T07:07:01.812Z,544.00
2018-05-01T07:08:01.793Z,544.00
2018-05-01T07:09:01.771Z,584.00
2018-05-01T07:10:01.760Z,620.00
2018-05-01T07:11:01.735Z,744.00
2018-05-01T07:12:01.718Z,772.00
2018-05-01T07:13:01.696Z,744.00
2018-05-01T07:14:01.725Z,804.00
2018-05-01T07:15:01.682Z,840.00
2018-05-01T07:16:01.629Z,840.00
2018-05-01T07:17:01.613Z,808.00
2018-05-01T07:18:01.591Z,840.00
2018-05-01T07:19:01.580Z,888.00
2018-05-01T07:20:01.554Z,912.00
2018-05-01T07:21:01.531Z,940.00
2018-05-01T07:22:01.520Z,968.00
2018-05-01T07:23:01.497Z,1084.00
2018-05-01T07:24:01.588Z,1344.00
2018-05-01T07:25:01.462Z,1444.00
2018-05-01T07:26:01.433Z,1224.00
2018-05-01T07:27:01.431Z,1076.00
2018-05-01T07:28:01.394Z,1000.00
2018-05-01T07:29:01.383Z,1088.00
2018-05-01T07:30:01.359Z,1068.00
2018-05-01T07:31:01.337Z,1028.00
2018-05-01T07:32:01.314Z,1000.00
2018-05-01T07:33:01.303Z,1044.00
2018-05-01T07:34:01.276Z,1176.00
2018-05-01T07:35:01.256Z,1248.00
2018-05-01T07:36:01.234Z,1108.00
2018-05-01T07:37:01.220Z,1108.00
2018-05-01T07:38:01.215Z,1172.00
2018-05-01T07:39:01.192Z,1364.00
2018-05-01T07:40:01.163Z,920.00
2018-05-01T07:41:01.138Z,904.00
2018-05-01T07:42:01.114Z,880.00
2018-05-01T07:43:01.104Z,824.00
2018-05-01T07:44:01.078Z,792.00
2018-05-01T07:45:01.054Z,836.00
2018-05-01T07:46:01.047Z,884.00
2018-05-01T07:47:01.022Z,1004.00
2018-05-01T07:48:01.014Z,916.00
2018-05-01T07:49:01.000Z,916.00
2018-05-01T07:50:00.962Z,1108.00
2018-05-01T07:51:00.951Z,1096.00
2018-05-01T07:52:00.919Z,1072.00
2018-05-01T07:53:00.895Z,1212.00
2018-05-01T07:54:00.883Z,1112.00
2018-05-01T07:55:00.860Z,1092.00
2018-05-01T07:56:00.840Z,1032.00
2018-05-01T07:57:00.823Z,1084.00
2018-05-01T07:58:00.802Z,1116.00
2018-05-01T07:59:00.779Z,1288.00
2018-05-01T08:00:00.757Z,1144.00
2018-05-01T08:01:00.738Z,1152.00
2018-05-01T08:02:00.724Z,1028.00
2018-05-01T08:03:00.700Z,1060.00
2018-05-01T08:04:00.691Z,984.00
2018-05-01T08:05:00.656Z,980.00
2018-05-01T08:06:00.643Z,992.00
2018-05-01T08:07:00.730Z,1068.00
2018-05-01T08:08:00.605Z,1100.00
2018-05-01T08:09:00.579Z,1152.00
2018-05-01T08:10:00.573Z,1260.00
2018-05-01T08:11:00.543Z,1356.00
2018-05-01T08:12:00.578Z,1404.00
2018-05-01T08:13:00.513Z,1244.00
2018-05-01T08:14:00.487Z,1136.00
2018-05-01T08:15:00.469Z,1164.00
2018-05-01T08:16:00.453Z,1148.00
2018-05-01T08:17:00.424Z,1256.00
2018-05-01T08:18:00.414Z,1340.00
2018-05-01T08:19:00.403Z,1300.00
2018-05-01T08:20:00.381Z,1320.00
2018-05-01T08:21:00.346Z,1244.00
2018-05-01T08:22:00.328Z,1224.00
2018-05-01T08:23:00.315Z,1200.00
2018-05-01T08:24:00.292Z,1240.00
2018-05-01T08:25:00.277Z,1236.00
2018-05-01T08:26:00.252Z,1236.00
2018-05-01T08:27:00.241Z,1312.00
2018-05-01T08:28:00.218Z,1376.00
2018-05-01T08:29:00.199Z,1460.00
2018-05-01T08:30:00.176Z,1632.00
2018-05-01T08:31:00.149Z,1840.00
2018-05-01T08:32:00.132Z,1892.00
2018-05-01T08:33:00.123Z,2140.00
2018-05-01T08:34:00.098Z,2448.00
2018-05-01T08:35:00.083Z,2548.00
2018-05-01T08:36:00.061Z,2492.00
2018-05-01T08:37:00.042Z,2344.00
2018-05-01T08:38:00.069Z,2480.00
2018-05-01T08:39:00.005Z,2824.00
2018-05-01T08:39:59.982Z,3316.00
2018-05-01T08:40:59.960Z,3580.00
2018-05-01T08:41:59.944Z,3720.00
2018-05-01T08:42:59.919Z,4460.00
2018-05-01T08:43:59.955Z,4324.00
2018-05-01T08:44:59.882Z,4160.00
2018-05-01T08:45:59.862Z,4116.00
2018-05-01T08:46:59.842Z,4100.00
2018-05-01T08:47:59.824Z,4280.00
2018-05-01T08:48:59.802Z,4656.00
2018-05-01T08:49:59.791Z,5176.00
2018-05-01T08:50:59.771Z,4956.00
2018-05-01T08:51:59.749Z,4464.00
2018-05-01T08:52:59.732Z,4180.00
2018-05-01T08:53:59.789Z,4272.00
2018-05-01T08:54:59.689Z,5656.00
2018-05-01T08:55:59.673Z,5560.00
2018-05-01T08:56:59.650Z,7224.00
2018-05-01T08:57:59.638Z,30528.00
2018-05-01T08:58:59.618Z,9484.00
2018-05-01T08:59:59.596Z,12132.00
2018-05-01T09:00:59.580Z,8908.00
2018-05-01T09:01:59.561Z,20096.00
2018-05-01T09:02:59.540Z,25024.00
2018-05-01T09:03:59.532Z,7660.00
2018-05-01T09:04:59.511Z,11436.00
2018-05-01T09:05:59.486Z,8864.00
2018-05-01T09:06:59.478Z,7360.00
2018-05-01T09:07:59.462Z,5680.00
2018-05-01T09:08:59.448Z,5140.00
2018-05-01T09:09:59.416Z,4128.00
2018-05-01T09:10:59.400Z,4128.00
2018-05-01T09:11:59.385Z,4424.00
2018-05-01T09:12:59.369Z,4148.00
2018-05-01T09:13:59.353Z,4060.00
2018-05-01T09:14:59.336Z,4116.00
2018-05-01T09:15:59.322Z,4140.00
2018-05-01T09:16:59.385Z,4216.00
2018-05-01T09:17:59.376Z,4232.00
2018-05-01T09:18:59.258Z,4180.00
2018-05-01T09:19:59.241Z,4064.00
2018-05-01T09:20:59.226Z,4648.00
2018-05-01T09:21:59.210Z,4744.00
2018-05-01T09:22:59.190Z,4772.00
2018-05-01T09:23:59.180Z,4960.00
2018-05-01T09:24:59.149Z,5344.00
2018-05-01T09:25:59.146Z,6128.00
2018-05-01T09:26:59.131Z,6348.00
2018-05-01T09:27:59.105Z,6640.00
2018-05-01T09:28:59.088Z,7308.00
2018-05-01T09:29:59.064Z,6004.00
2018-05-01T09:30:59.045Z,6668.00
2018-05-01T09:31:59.027Z,7644.00
2018-05-01T09:32:59.007Z,5832.00
2018-05-01T09:33:59.010Z,6968.00
2018-05-01T09:34:58.970Z,5428.00
2018-05-01T09:35:58.961Z,8712.00
2018-05-01T09:36:58.935Z,8060.00
2018-05-01T09:37:58.914Z,10240.00
2018-05-01T09:38:58.896Z,8424.00
2018-05-01T09:39:58.880Z,7084.00
2018-05-01T09:40:58.870Z,7948.00
2018-05-01T09:41:58.903Z,6576.00
2018-05-01T09:42:58.829Z,5460.00
2018-05-01T09:43:58.820Z,6504.00
2018-05-01T09:44:58.789Z,5184.00
2018-05-01T09:45:58.771Z,5692.00
2018-05-01T09:46:58.761Z,8756.00
2018-05-01T09:47:58.749Z,8200.00
2018-05-01T09:48:58.726Z,7556.00
2018-05-01T09:49:58.713Z,8332.00
2018-05-01T09:50:58.685Z,6188.00
2018-05-01T09:51:58.670Z,5244.00
2018-05-01T09:52:58.662Z,5548.00
2018-05-01T09:53:58.650Z,6920.00
2018-05-01T09:54:58.628Z,7800.00
2018-05-01T09:55:58.608Z,7144.00
2018-05-01T09:56:58.580Z,4796.00
2018-05-01T09:57:58.570Z,3796.00
2018-05-01T09:58:58.550Z,3692.00
2018-05-01T09:59:58.532Z,5024.00
2018-05-01T10:00:58.514Z,4580.00
2018-05-01T10:01:58.499Z,5712.00
2018-05-01T10:02:58.483Z,10904.00
2018-05-01T10:03:58.467Z,9796.00
2018-05-01T10:04:58.450Z,6932.00
2018-05-01T10:05:58.429Z,6804.00
2018-05-01T10:06:58.418Z,9464.00
2018-05-01T10:07:58.411Z,6372.00
2018-05-01T10:08:58.380Z,4448.00
2018-05-01T10:09:58.365Z,3972.00
2018-05-01T10:10:58.355Z,4416.00
2018-05-01T10:11:58.336Z,4268.00
2018-05-01T10:12:58.316Z,4588.00
2018-05-01T10:13:58.300Z,6924.00
2018-05-01T10:14:58.280Z,8420.00
2018-05-01T10:15:58.266Z,4176.00
2018-05-01T10:16:58.244Z,3876.00
2018-05-01T10:17:58.245Z,4120.00
2018-05-01T10:18:58.209Z,4712.00
2018-05-01T10:19:58.190Z,4672.00
2018-05-01T10:20:58.175Z,5080.00
2018-05-01T10:21:58.158Z,3912.00
2018-05-01T10:22:58.145Z,3432.00
2018-05-01T10:23:58.125Z,3700.00
2018-05-01T10:24:58.110Z,4032.00
2018-05-01T10:25:58.091Z,4492.00
2018-05-01T10:26:58.078Z,4748.00
2018-05-01T10:27:58.058Z,5484.00
2018-05-01T10:28:58.041Z,6540.00
2018-05-01T10:29:58.027Z,6184.00
2018-05-01T10:30:58.015Z,6008.00
2018-05-01T10:31:57.995Z,5936.00
2018-05-01T10:32:57.976Z,6044.00
2018-05-01T10:33:57.969Z,7080.00
2018-05-01T10:34:57.953Z,8408.00
2018-05-01T10:35:57.923Z,9640.00
2018-05-01T10:36:57.923Z,10048.00
2018-05-01T10:37:57.908Z,10376.00
2018-05-01T10:38:57.899Z,10364.00
2018-05-01T10:39:57.866Z,10368.00
2018-05-01T10:40:57.847Z,10608.00
2018-05-01T10:41:57.831Z,9932.00
2018-05-01T10:42:57.809Z,10356.00
2018-05-01T10:43:57.790Z,9744.00
2018-05-01T10:44:57.772Z,10492.00
2018-05-01T10:45:57.760Z,12448.00
2018-05-01T10:46:57.740Z,12840.00
2018-05-01T10:47:57.719Z,10328.00
2018-05-01T10:48:57.708Z,9412.00
2018-05-01T10:49:57.689Z,10888.00
2018-05-01T10:50:57.673Z,12356.00
2018-05-01T10:51:57.668Z,15008.00
2018-05-01T10:52:57.640Z,12684.00
2018-05-01T10:53:57.630Z,8144.00
2018-05-01T10:54:57.612Z,6536.00
2018-05-01T10:55:57.604Z,5852.00
2018-05-01T10:56:57.581Z,6052.00
2018-05-01T10:57:57.581Z,6184.00
2018-05-01T10:58:57.552Z,6648.00
2018-05-01T10:59:57.537Z,7184.00
2018-05-01T11:00:57.521Z,7472.00
2018-05-01T11:01:57.504Z,7300.00
2018-05-01T11:02:57.491Z,8600.00
2018-05-01T11:03:57.488Z,7544.00
2018-05-01T11:04:57.466Z,6548.00
2018-05-01T11:05:57.450Z,5868.00
2018-05-01T11:06:57.427Z,6116.00
2018-05-01T11:07:57.410Z,7332.00
2018-05-01T11:08:57.401Z,7284.00
2018-05-01T11:09:57.380Z,6472.00
2018-05-01T11:10:57.370Z,6096.00
2018-05-01T11:11:57.432Z,6132.00
2018-05-01T11:12:57.335Z,7292.00
2018-05-01T11:13:57.317Z,7292.00
2018-05-01T11:14:57.312Z,6548.00
2018-05-01T11:15:57.300Z,6464.00
2018-05-01T11:16:57.278Z,6680.00
2018-05-01T11:17:57.257Z,7500.00
2018-05-01T11:18:57.250Z,7884.00
2018-05-01T11:19:57.231Z,9916.00
2018-05-01T11:20:57.219Z,9892.00
2018-05-01T11:21:57.209Z,8964.00
2018-05-01T11:22:57.248Z,8444.00
2018-05-01T11:23:57.168Z,8292.00
2018-05-01T11:24:57.250Z,8260.00
2018-05-01T11:25:57.210Z,9056.00
2018-05-01T11:26:57.278Z,9004.00
2018-05-01T11:27:57.108Z,8664.00
2018-05-01T11:28:57.093Z,8388.00
2018-05-01T11:29:57.081Z,6648.00
2018-05-01T11:30:57.167Z,5812.00
2018-05-01T11:31:57.049Z,6680.00
2018-05-01T11:32:57.028Z,7224.00
2018-05-01T11:33:57.016Z,6328.00
2018-05-01T11:34:57.052Z,7328.00
2018-05-01T11:35:56.990Z,8272.00
2018-05-01T11:36:57.016Z,9092.00
2018-05-01T11:37:56.963Z,9524.00
2018-05-01T11:38:57.001Z,9148.00
2018-05-01T11:39:56.923Z,9124.00
2018-05-01T11:40:56.959Z,9280.00
2018-05-01T11:41:56.895Z,8784.00
2018-05-01T11:42:56.929Z,8748.00
2018-05-01T11:43:56.868Z,9256.00
2018-05-01T11:44:56.857Z,9724.00
2018-05-01T11:45:56.834Z,9864.00
2018-05-01T11:46:56.871Z,8640.00
2018-05-01T11:47:56.810Z,7572.00
2018-05-01T11:48:56.802Z,7500.00
2018-05-01T11:49:56.786Z,7632.00
2018-05-01T11:50:56.770Z,8560.00
2018-05-01T11:51:56.752Z,6616.00
2018-05-01T11:52:56.750Z,8460.00
2018-05-01T11:53:56.719Z,6316.00
2018-05-01T11:54:56.711Z,6036.00
2018-05-01T11:55:56.696Z,9292.00
2018-05-01T11:56:56.691Z,9564.00
2018-05-01T11:57:56.658Z,9484.00
2018-05-01T11:58:56.660Z,8536.00
2018-05-01T11:59:56.633Z,7592.00
2018-05-01T12:00:56.621Z,7172.00
2018-05-01T12:01:56.602Z,5664.00
2018-05-01T12:02:56.587Z,5852.00
2018-05-01T12:03:56.579Z,6284.00
2018-05-01T12:04:56.554Z,7004.00
2018-05-01T12:05:56.543Z,7832.00
2018-05-01T12:06:56.523Z,8476.00
2018-05-01T12:07:56.516Z,8952.00
2018-05-01T12:08:56.504Z,9760.00
2018-05-01T12:09:56.491Z,9776.00
2018-05-01T12:10:56.468Z,7932.00
2018-05-01T12:11:56.453Z,9024.00
2018-05-01T12:12:56.436Z,8328.00
2018-05-01T12:13:56.429Z,8276.00
2018-05-01T12:14:56.418Z,8780.00
2018-05-01T12:15:56.400Z,9292.00
2018-05-01T12:16:56.379Z,9000.00
2018-05-01T12:17:56.369Z,9800.00
2018-05-01T12:18:56.355Z,10036.00
2018-05-01T12:19:56.339Z,10328.00
2018-05-01T12:20:56.335Z,10184.00
2018-05-01T12:21:56.311Z,9304.00
2018-05-01T12:22:56.309Z,8236.00
2018-05-01T12:23:56.286Z,7748.00
2018-05-01T12:24:56.277Z,7572.00
2018-05-01T12:25:56.262Z,7504.00
2018-05-01T12:26:56.241Z,7628.00
2018-05-01T12:27:56.228Z,7184.00
2018-05-01T12:28:56.218Z,7660.00
2018-05-01T12:29:56.246Z,8220.00
2018-05-01T12:30:56.191Z,8800.00
2018-05-01T12:31:56.177Z,9156.00
2018-05-01T12:32:56.159Z,9568.00
2018-05-01T12:33:56.151Z,9536.00
2018-05-01T12:34:56.127Z,10072.00
2018-05-01T12:35:56.119Z,10088.00